Mystic, Connecticut
Current Conditions -  °F | °C
As of 9:56 AM on Thursday 30 Oct 2014 (Local Time) from KGON Reporting Station
Broken Clouds Broken Clouds  
Wind Chill: 54°   Ceiling: 7000
Heat Index: 54°   Visibility: 10mi
Dew Point: 42°   Wind: 10mph
Humidity: 64%   Direction: 320°NW
Pressure: 29.97"   Gusts: NA
Location:  41.36°N, 71.95°W
Report Text: KGON 301356Z 32009KT 10SM BKN070 12/06 A2997 RMK AO2 SLP147 T01220056
Loading
Personal Weather Stations






























Interactive Weather Map
Tropical Storm Tracking
New forecast layout! Learn more

10-Day Weather Forecast

Advertisements
Track Severe Weather on mobile